Time;durP1;ratioP1;P1;durP2;ratioP2;P2;SDS_P1;SDS_P2;PMS_P1;PMS_P2;Temp;Humidity;BMP_temperature;BMP_pressure;BME280_temperature;BME280_humidity;BME280_pressure;Samples;Min_cycle;Max_cycle;Signal;HPM_P1;HPM_P2
2023/12/02 00:31:45;;;;;;;;;;;;;;;;;;;;;
2023/12/02 00:34:55;;;;;;;;;;;;;;;;;;;;;
2023/12/02 00:47:37;;;;;;;;;;;;;;;;;;;;;
2023/12/02 05:00:48;;;;;;;;;;;;;;;;;;;;;
2023/12/02 05:03:21;;;;;;;5.07;1.83;;;;;;;11.22;62.55;98373.53;4989312;28;20070;-96
2023/12/02 05:06:23;;;;;;;4.35;1.77;;;;;;;11.39;61.76;98368.34;4959410;28;20022;-96
2023/12/02 05:09:17;;;;;;;3.05;1.90;;;;;;;11.78;60.81;98399.41;4990552;28;20058;-96
2023/12/02 05:11:54;;;;;;;3.15;1.60;;;;;;;11.89;60.16;98394.63;4990741;28;20030;-96
2023/12/02 05:14:33;;;;;;;3.70;1.80;;;;;;;12.11;59.65;98405.50;4960661;28;20039;-96
2023/12/02 05:58:30;;;;;;;6.18;2.08;;;;;;;12.14;59.75;98382.53;5429525;23;20057;-96
2023/12/02 06:01:03;;;;;;;7.45;1.95;;;;;;;12.42;58.51;98406.75;4973945;28;20055;-95
2023/12/02 06:03:33;;;;;;;2.63;1.83;;;;;;;12.40;58.63;98390.06;4972807;28;20042;-96
2023/12/02 06:05:59;;;;;;;4.32;2.53;;;;;;;12.56;58.18;98399.41;4990297;28;20105;-96
2023/12/02 06:08:27;;;;;;;5.47;1.92;;;;;;;12.52;58.09;98383.03;4971989;28;20098;-96
2023/12/02 06:11:33;;;;;;;;;;;;;;;;;;;;;
2023/12/02 06:14:05;;;;;;;6.72;2.47;;;;;;;12.72;57.61;98394.44;5006807;28;20054;-96
2023/12/02 06:16:35;;;;;;;6.40;2.20;;;;;;;12.89;57.65;98415.41;4973907;28;20057;-95
2023/12/02 06:19:12;;;;;;;4.15;2.20;;;;;;;12.80;57.31;98391.00;4975227;28;20034;-95
2023/12/02 06:21:53;;;;;;;;;;;;;;;;;;;;;
2023/12/02 06:24:19;;;;;;;6.05;2.38;;;;;;;13.05;56.69;98372.56;5005279;28;20109;-96
2023/12/02 06:26:44;;;;;;;3.80;2.45;;;;;;;13.13;56.60;98369.91;4985559;28;20054;-96
2023/12/02 06:29:13;;;;;;;4.95;2.58;;;;;;;13.20;56.17;98379.47;4968070;28;20558;-95
2023/12/02 06:31:38;;;;;;;6.13;2.25;;;;;;;13.36;55.49;98396.94;4970770;28;20060;-95
2023/12/02 06:34:04;;;;;;;8.15;5.38;;;;;;;13.33;55.72;98378.63;4970495;28;20022;-95
2023/12/02 06:36:37;;;;;;;6.95;3.22;;;;;;;13.42;54.95;98375.97;4970355;28;20022;-95
2023/12/02 06:39:04;;;;;;;3.15;2.00;;;;;;;13.61;54.96;98400.06;4976128;28;20057;-95
2023/12/02 06:41:30;;;;;;;4.80;2.22;;;;;;;13.56;54.84;98390.19;4972651;28;20480;-96
2023/12/02 06:43:55;;;;;;;5.00;2.30;;;;;;;13.63;54.81;98384.31;4969717;28;20090;-95
2023/12/02 06:47:13;;;;;;;;;;;;;;;;;;;;;
2023/12/02 06:49:46;;;;;;;8.20;2.30;;;;;;;13.99;54.29;98429.34;5133109;23;20093;-96
2023/12/02 06:52:50;;;;;;;4.45;2.25;;;;;;;13.96;53.63;98411.81;4962830;28;20030;-96
2023/12/02 06:55:37;;;;;;;3.00;2.00;;;;;;;14.03;53.60;98412.16;4982585;28;20129;-96
2023/12/02 07:01:07;;;;;;;5.32;2.20;;;;;;;14.32;53.28;98424.31;4935031;29;20024;-96
2023/12/02 07:03:47;;;;;;;6.55;3.65;;;;;;;14.25;53.02;98396.91;4903530;28;20036;-96
2023/12/02 07:06:13;;;;;;;4.32;2.70;;;;;;;14.38;53.08;98423.06;4891474;29;20041;-96
2023/12/02 07:08:38;;;;;;;6.82;2.40;;;;;;;14.40;52.85;98414.59;4889068;29;20024;-96
2023/12/02 07:11:04;;;;;;;7.55;2.42;;;;;;;14.55;52.70;98424.97;4897201;29;20113;-96
2023/12/02 07:13:30;;;;;;;2.92;1.83;;;;;;;14.49;52.50;98415.41;4896135;29;20126;-96
2023/12/02 07:15:56;;;;;;;4.55;2.08;;;;;;;14.62;52.43;98422.59;4904784;29;20047;-96
2023/12/02 07:18:25;;;;;;;3.95;1.85;;;;;;;14.72;52.11;98427.72;4905023;29;20039;-95
2023/12/02 07:20:51;;;;;;;4.93;1.75;;;;;;;14.78;52.47;98424.84;4889905;29;20036;-95
2023/12/02 07:23:16;;;;;;;9.30;2.50;;;;;;;14.66;52.47;98407.31;4888753;29;20035;-94
2023/12/02 07:25:42;;;;;;;5.00;2.33;;;;;;;14.62;52.58;98400.16;4888463;29;20036;-94
2023/12/02 07:28:08;;;;;;;4.25;1.83;;;;;;;14.71;52.33;98415.28;4889947;29;20083;-94
2023/12/02 07:30:41;;;;;;;4.20;2.10;;;;;;;14.76;51.80;98387.22;4900486;28;21003;-95
2023/12/02 07:33:06;;;;;;;5.50;2.50;;;;;;;14.87;51.96;98399.31;4965796;28;20462;-94
2023/12/02 07:35:32;;;;;;;6.07;2.20;;;;;;;14.92;51.56;98396.47;4950222;28;20022;-96
2023/12/02 07:38:01;;;;;;;5.75;2.67;;;;;;;15.06;51.54;98390.03;4966541;28;20050;-95
2023/12/02 07:40:28;;;;;;;8.07;2.58;;;;;;;15.07;51.49;98388.94;4950530;28;20030;-96
2023/12/02 07:42:54;;;;;;;4.80;2.60;;;;;;;15.30;50.92;98417.44;4950032;28;20062;-95
2023/12/02 07:45:20;;;;;;;6.53;2.42;;;;;;;15.26;50.88;98383.16;4965487;28;20065;-95
2023/12/02 07:47:45;;;;;;;5.75;2.60;;;;;;;15.29;51.06;98391.44;4963838;28;20061;-96
2023/12/02 07:50:11;;;;;;;4.68;2.15;;;;;;;15.35;50.57;98400.19;4966002;28;20129;-94
2023/12/02 07:52:37;;;;;;;8.57;3.25;;;;;;;15.34;50.66;98393.97;4949489;28;20050;-95
2023/12/02 07:55:05;;;;;;;4.03;2.30;;;;;;;15.62;49.90;98401.69;4949443;28;20094;-94
2023/12/02 07:57:31;;;;;;;9.35;4.38;;;;;;;15.76;50.10;98415.06;4949324;28;20114;-95
2023/12/02 08:00:00;;;;;;;6.63;3.03;;;;;;;15.71;49.47;98404.38;4949683;28;20022;-95
2023/12/02 08:02:26;;;;;;;4.97;2.60;;;;;;;15.84;49.22;98416.94;4949540;28;20042;-95
2023/12/02 08:04:52;;;;;;;6.35;2.72;;;;;;;15.95;49.20;98410.00;4964226;28;20524;-94
2023/12/02 08:07:18;;;;;;;5.43;2.72;;;;;;;16.21;48.88;98436.25;4949138;28;20408;-95
2023/12/02 08:15:20;;;;;;;5.20;2.80;;;;;;;16.43;49.01;98431.63;5133506;23;19922;-95
2023/12/02 08:17:46;;;;;;;7.97;3.10;;;;;;;16.59;48.41;98445.44;4970435;28;20037;-94
2023/12/02 08:20:13;;;;;;;5.05;3.00;;;;;;;16.51;48.10;98428.06;4984863;28;20113;-95
2023/12/02 08:22:39;;;;;;;7.80;3.33;;;;;;;16.65;48.01;98435.94;4984274;28;20164;-93
2023/12/02 08:25:05;;;;;;;4.45;2.70;;;;;;;16.69;47.91;98432.22;4968041;28;20057;-94
2023/12/02 08:27:31;;;;;;;4.35;2.50;;;;;;;16.81;47.28;98447.84;4971664;28;20022;-95
2023/12/02 08:29:57;;;;;;;8.73;2.65;;;;;;;16.83;47.69;98442.06;4971819;28;20026;-96
2023/12/02 08:32:22;;;;;;;8.05;2.80;;;;;;;16.78;47.51;98432.16;4971270;28;20022;-95
2023/12/02 08:34:48;;;;;;;11.68;6.28;;;;;;;16.90;47.25;98447.78;4987348;28;20120;-96
2023/12/02 08:37:14;;;;;;;5.32;2.20;;;;;;;16.85;47.28;98434.38;4987258;28;20025;-96
2023/12/02 08:39:40;;;;;;;6.43;2.47;;;;;;;16.89;47.15;98430.66;4971517;28;20032;-94
2023/12/02 08:42:05;;;;;;;3.88;2.28;;;;;;;16.87;47.35;98426.66;4971023;28;20054;-94
2023/12/02 08:44:34;;;;;;;5.18;2.20;;;;;;;16.87;47.29;98429.38;4987830;28;20036;-95
2023/12/02 08:47:11;;;;;;;7.22;2.40;;;;;;;16.90;47.48;98423.28;4972239;28;20093;-96
2023/12/02 08:49:37;;;;;;;5.25;1.92;;;;;;;16.86;46.73;98409.56;4974687;28;20113;-95
2023/12/02 08:52:02;;;;;;;8.60;2.50;;;;;;;17.01;46.85;98418.22;4988653;28;20038;-96
2023/12/02 08:54:28;;;;;;;5.13;2.20;;;;;;;17.00;47.60;98411.22;4972406;28;20029;-95
2023/12/02 08:57:02;;;;;;;4.50;2.08;;;;;;;16.98;47.46;98416.19;4972889;28;20026;-94
2023/12/02 08:59:30;;;;;;;3.85;2.03;;;;;;;17.02;46.41;98408.97;4972911;28;20022;-96
2023/12/02 09:01:56;;;;;;;7.60;3.30;;;;;;;17.07;45.88;98403.31;4972079;28;20459;-96
2023/12/02 09:04:22;;;;;;;4.55;2.15;;;;;;;17.09;46.15;98399.09;4971196;28;20117;-96
2023/12/02 09:06:48;;;;;;;4.00;2.03;;;;;;;17.11;45.69;98387.91;4971622;28;20018;-96
2023/12/02 09:09:14;;;;;;;5.60;2.30;;;;;;;17.20;45.36;98385.09;4971843;28;20029;-96
2023/12/02 09:11:51;;;;;;;5.20;2.65;;;;;;;17.14;46.41;98389.94;4972840;28;20385;-93
2023/12/02 09:14:17;;;;;;;7.45;2.70;;;;;;;17.20;46.04;98402.19;4974482;28;20064;-95
2023/12/02 09:16:46;;;;;;;5.90;2.55;;;;;;;17.17;46.62;98392.78;4973608;28;20101;-96
2023/12/02 09:19:44;;;;;;;3.38;1.80;;;;;;;17.32;46.38;98404.16;4987908;28;20049;-95
2023/12/02 09:22:40;;;;;;;7.70;2.63;;;;;;;17.18;45.68;98388.13;5000190;28;20039;-96
2023/12/02 09:25:06;;;;;;;4.50;2.58;;;;;;;17.17;45.63;98381.91;4990225;28;20038;-96
2023/12/02 09:28:05;;;;;;;14.07;4.95;;;;;;;17.19;46.25;98370.69;4991005;28;20046;-96
2023/12/02 09:30:34;;;;;;;7.22;3.53;;;;;;;17.29;46.45;98380.34;4991009;28;20502;-96
2023/12/02 09:32:59;;;;;;;6.00;2.47;;;;;;;17.27;46.11;98377.19;4989590;28;20028;-96
2023/12/02 09:35:25;;;;;;;7.10;2.92;;;;;;;17.23;46.23;98370.81;4974594;28;20022;-96
2023/12/02 09:37:51;;;;;;;5.22;2.60;;;;;;;17.33;46.56;98373.91;4972223;28;20408;-96
2023/12/02 09:40:19;;;;;;;7.78;3.47;;;;;;;17.35;46.56;98379.78;5066072;23;20145;-96
2023/12/02 09:43:28;;;;;;;8.70;3.22;;;;;;;17.23;45.58;98349.84;4983634;28;20419;-96
2023/12/02 09:46:00;;;;;;;6.70;2.28;;;;;;;17.30;45.94;98365.59;4975903;28;20038;-96
2023/12/02 09:48:32;;;;;;;4.35;2.15;;;;;;;17.27;45.95;98361.63;4968330;28;20557;-96
2023/12/02 09:51:34;;;;;;;11.57;3.28;;;;;;;17.37;47.14;98361.22;4951321;28;20030;-96
2023/12/02 09:54:16;;;;;;;7.53;3.20;;;;;;;17.30;46.97;98335.69;4983921;28;20034;-96
2023/12/02 09:56:43;;;;;;;;;;;;;;;17.41;46.42;98345.00;4952443;28;20030;-96
2023/12/02 09:59:14;;;;;;;12.43;4.97;;;;;;;17.42;46.25;98334.91;4967737;28;20012;-96
2023/12/02 10:01:46;;;;;;;;;;;;;;;17.44;46.43;98338.09;4967303;28;20030;-95
2023/12/02 10:04:33;;;;;;;23.23;9.13;;;;;;;17.37;46.49;98323.09;4965908;28;19910;-96
2023/12/02 10:07:15;;;;;;;29.80;9.60;;;;;;;17.32;46.24;98300.75;4968524;28;20069;-96
2023/12/02 10:10:09;;;;;;;20.77;8.23;;;;;;;17.33;46.54;98307.81;4951154;28;20057;-96
2023/12/02 10:13:04;;;;;;;14.77;5.38;;;;;;;17.41;46.46;98296.03;4954173;28;20030;-96
2023/12/02 10:15:32;;;;;;;9.77;4.05;;;;;;;17.52;46.00;98301.78;4952043;28;20034;-96
2023/12/02 10:18:13;;;;;;;8.38;3.47;;;;;;;17.48;46.17;98277.19;4949693;28;20496;-96
2023/12/02 10:20:42;;;;;;;6.45;2.53;;;;;;;17.64;45.50;98277.28;4965713;28;20026;-95
2023/12/02 10:23:37;;;;;;;6.18;2.47;;;;;;;17.63;46.09;98274.91;4949610;28;20035;-96
2023/12/02 10:26:24;;;;;;;6.57;4.10;;;;;;;17.70;45.88;98247.88;4968770;28;20026;-96
2023/12/02 10:29:14;;;;;;;9.90;3.45;;;;;;;17.64;45.94;98243.81;4965185;28;20106;-96
2023/12/02 10:31:48;;;;;;;6.82;2.38;;;;;;;17.69;45.52;98260.72;4983117;28;20026;-94
2023/12/02 10:34:23;;;;;;;6.53;2.80;;;;;;;17.65;45.54;98246.19;4949713;28;20034;-95
2023/12/02 10:36:48;;;;;;;7.90;2.33;;;;;;;17.64;45.30;98249.25;4948994;28;20038;-96
2023/12/02 10:39:19;;;;;;;6.93;2.30;;;;;;;17.72;44.78;98245.63;4948711;28;20168;-95
2023/12/02 10:42:03;;;;;;;9.10;3.28;;;;;;;17.75;44.93;98256.63;4949723;28;20066;-95
2023/12/02 10:44:33;;;;;;;6.28;3.10;;;;;;;17.84;44.57;98259.22;4929648;28;20038;-95
2023/12/02 10:47:01;;;;;;;6.80;2.75;;;;;;;17.85;44.19;98244.50;4945464;28;20074;-95
2023/12/02 10:49:28;;;;;;;5.47;2.40;;;;;;;17.94;45.00;98261.47;4945004;28;20026;-94
2023/12/02 10:51:55;;;;;;;5.82;2.30;;;;;;;17.94;44.76;98315.94;4930272;28;20071;-95
2023/12/02 10:54:24;;;;;;;5.60;2.35;;;;;;;17.89;44.31;98312.69;4929798;28;20027;-96
2023/12/02 10:56:49;;;;;;;7.75;3.22;;;;;;;17.77;44.84;98300.63;4946752;28;20126;-94
2023/12/02 10:59:16;;;;;;;3.70;2.03;;;;;;;17.93;44.24;98332.66;4929871;28;20073;-95
2023/12/02 11:01:46;;;;;;;6.18;3.00;;;;;;;17.90;44.86;98328.66;4961682;28;20041;-96
2023/12/02 11:04:28;;;;;;;10.63;3.50;;;;;;;17.75;45.07;98321.19;4945435;28;20118;-93
2023/12/02 11:06:57;;;;;;;7.40;2.78;;;;;;;17.67;45.20;98308.47;4945359;28;20029;-95
2023/12/02 11:10:00;;;;;;;11.70;3.17;;;;;;;17.74;45.68;98323.13;4930536;28;20109;-95
2023/12/02 11:12:36;;;;;;;3.67;2.33;;;;;;;17.60;45.57;98300.06;4961365;28;20125;-95
2023/12/02 11:15:04;;;;;;;6.70;3.35;;;;;;;17.46;46.11;98298.50;4929435;28;20022;-94
2023/12/02 11:17:40;;;;;;;7.55;3.05;;;;;;;17.43;46.56;98301.09;4960746;28;20031;-96
2023/12/02 11:20:26;;;;;;;7.45;2.38;;;;;;;17.28;46.12;98297.13;4966542;28;20053;-96
2023/12/02 11:23:43;;;;;;;;;;;;;;;;;;;;;
2023/12/02 11:26:37;;;;;;;5.05;1.92;;;;;;;17.33;46.04;98296.91;4980974;28;20046;-96
2023/12/02 11:36:55;;;;;;;9.52;3.35;;;;;;;17.26;46.56;98239.53;4976278;28;21906;-96
2023/12/02 11:45:47;;;;;;;11.40;1.80;;;;;;;17.05;45.92;98251.31;5045511;23;20042;-95
2023/12/02 11:48:21;;;;;;;6.13;2.10;;;;;;;17.03;45.73;98274.56;5012719;28;20026;-96
2023/12/02 11:50:50;;;;;;;4.32;2.05;;;;;;;17.15;44.88;98277.28;4986435;28;20107;-96
2023/12/02 11:53:53;;;;;;;7.78;3.58;;;;;;;17.12;45.92;98270.59;4983775;28;20062;-95
2023/12/02 11:56:21;;;;;;;5.75;3.00;;;;;;;16.99;45.80;98255.41;5000349;28;20034;-94
2023/12/02 11:58:58;;;;;;;9.40;3.30;;;;;;;17.04;45.45;98266.06;4968574;28;20037;-95
2023/12/02 12:01:47;;;;;;;8.02;4.45;;;;;;;16.99;46.31;98266.28;4987786;28;20443;-95
2023/12/02 12:04:36;;;;;;;13.15;5.38;;;;;;;16.94;45.96;98245.53;5002300;28;20034;-96
2023/12/02 12:07:35;;;;;;;6.97;2.65;;;;;;;16.92;46.28;98241.56;5004167;28;20030;-96
2023/12/02 12:10:13;;;;;;;15.38;10.40;;;;;;;16.82;46.41;98231.13;4988262;28;20034;-94
2023/12/02 12:12:44;;;;;;;13.20;6.32;;;;;;;16.71;46.81;98217.16;4972516;28;20029;-96
2023/12/02 12:15:10;;;;;;;20.23;10.80;;;;;;;16.66;46.80;98220.09;4975621;28;20417;-96
2023/12/02 12:17:36;;;;;;;23.95;12.50;;;;;;;16.55;47.14;98211.56;4976695;28;20096;-96
2023/12/02 12:20:32;;;;;;;17.05;7.88;;;;;;;16.60;46.97;98226.88;4975555;28;20033;-95
2023/12/02 12:22:59;;;;;;;19.83;8.73;;;;;;;16.57;46.83;98233.78;4997246;28;20038;-96
2023/12/02 12:25:33;;;;;;;66.10;24.40;;;;;;;16.50;47.38;98231.63;4979594;28;20018;-96
2023/12/02 12:29:01;;;;;;;31.25;13.13;;;;;;;16.43;47.38;98234.06;4986062;28;20025;-96
2023/12/02 12:31:59;;;;;;;16.40;7.68;;;;;;;16.50;47.54;98242.47;4973434;28;20019;-96
2023/12/02 12:45:19;;;;;;;5.55;3.15;;;;;;;16.20;48.37;98192.91;5217653;23;20038;-96
2023/12/02 12:47:45;;;;;;;10.73;2.40;;;;;;;16.25;48.48;98195.44;5012895;28;20183;-93
2023/12/02 12:50:12;;;;;;;5.03;2.13;;;;;;;16.29;47.94;98192.81;4965979;28;20053;-95
2023/12/02 12:52:51;;;;;;;8.68;2.95;;;;;;;16.26;48.76;98205.16;4967511;28;20030;-94
2023/12/02 12:55:22;;;;;;;7.95;2.80;;;;;;;16.17;48.67;98185.44;4966862;28;20483;-95
2023/12/02 12:57:58;;;;;;;10.77;4.82;;;;;;;16.25;48.87;98194.63;4983037;28;20101;-94
2023/12/02 13:00:27;;;;;;;9.57;3.53;;;;;;;16.27;49.14;98181.50;4967808;28;20101;-94
2023/12/02 13:03:29;;;;;;;6.18;2.10;;;;;;;16.34;48.38;98196.13;4967548;28;20425;-94
2023/12/02 13:06:13;;;;;;;7.97;2.88;;;;;;;16.37;48.57;98186.50;4983601;28;20120;-94
2023/12/02 13:08:45;;;;;;;4.20;2.08;;;;;;;16.28;48.53;98156.72;4968428;28;20034;-96
2023/12/02 13:11:11;;;;;;;4.93;2.42;;;;;;;16.33;48.44;98163.84;4967179;28;20030;-95
2023/12/02 13:13:38;;;;;;;9.80;2.33;;;;;;;16.31;48.07;98156.06;4984814;28;20018;-94
2023/12/02 13:16:04;;;;;;;9.02;2.70;;;;;;;16.26;48.64;98128.31;4969405;28;20038;-95
2023/12/02 13:18:30;;;;;;;31.60;16.33;;;;;;;16.29;48.95;98152.91;4970320;28;20033;-95
2023/12/02 13:20:56;;;;;;;8.85;3.80;;;;;;;16.27;48.87;98159.78;4985628;28;20060;-94
2023/12/02 13:23:23;;;;;;;7.25;4.38;;;;;;;16.35;48.58;98172.47;4969486;28;20573;-95
2023/12/02 13:25:49;;;;;;;6.78;2.20;;;;;;;16.34;48.52;98171.69;4970686;28;20120;-95
2023/12/02 13:28:25;;;;;;;6.03;1.60;;;;;;;16.35;48.42;98165.13;4971364;28;20127;-95
2023/12/02 13:30:51;;;;;;;9.13;2.65;;;;;;;16.26;48.76;98150.84;4988337;28;20030;-94
2023/12/02 13:33:20;;;;;;;7.15;2.30;;;;;;;16.39;49.41;98169.88;4970854;28;20085;-94
2023/12/02 13:35:50;;;;;;;4.45;2.03;;;;;;;16.26;49.58;98158.19;4987472;28;20026;-95
2023/12/02 13:38:15;;;;;;;6.85;2.53;;;;;;;16.45;49.82;98163.09;4987186;28;20033;-93
2023/12/02 13:40:56;;;;;;;5.05;3.20;;;;;;;16.42;50.07;98170.00;5005287;28;20026;-93
2023/12/02 13:43:34;;;;;;;9.77;2.45;;;;;;;16.28;50.29;98167.59;5004060;28;20014;-91
2023/12/02 13:46:00;;;;;;;4.22;2.15;;;;;;;16.29;50.70;98163.75;4973510;28;20030;-94
2023/12/02 13:48:55;;;;;;;8.68;2.40;;;;;;;16.34;50.67;98160.03;4990641;28;20056;-95
2023/12/02 13:51:28;;;;;;;10.93;2.20;;;;;;;16.31;50.57;98168.84;5006620;28;20030;-94
2023/12/02 13:54:20;;;;;;;6.10;1.80;;;;;;;16.31;50.61;98168.84;4972863;28;20038;-94
2023/12/02 13:57:03;;;;;;;12.25;2.35;;;;;;;16.33;50.83;98189.13;4987588;28;20025;-94
2023/12/02 13:59:38;;;;;;;4.00;2.25;;;;;;;16.32;50.94;98178.59;4974450;28;20025;-94
2023/12/02 14:02:33;;;;;;;6.93;2.88;;;;;;;16.29;51.43;98173.81;4987274;28;20034;-94
2023/12/02 14:05:22;;;;;;;7.32;3.25;;;;;;;16.35;51.52;98184.16;4989900;28;20046;-96
2023/12/02 14:07:52;;;;;;;6.10;2.00;;;;;;;16.39;51.51;98197.03;4990118;28;20033;-96
2023/12/02 14:10:28;;;;;;;4.88;2.40;;;;;;;16.27;51.12;98179.59;4972002;28;20022;-95
2023/12/02 14:13:19;;;;;;;6.00;2.05;;;;;;;16.45;51.26;98196.50;4991820;28;20030;-96
2023/12/02 14:16:06;;;;;;;3.78;1.90;;;;;;;16.43;51.61;98204.19;5007394;28;20060;-96
2023/12/02 14:18:57;;;;;;;7.15;1.80;;;;;;;16.43;51.78;98214.25;5008954;28;20030;-96
2023/12/02 14:21:32;;;;;;;7.47;2.72;;;;;;;16.29;52.08;98199.06;5007947;28;20093;-96
2023/12/02 14:27:11;;;;;;;4.82;2.00;;;;;;;16.34;51.33;98200.78;5007663;22;20061;-96
2023/12/02 14:30:00;;;;;;;4.68;2.17;;;;;;;16.44;51.36;98230.25;4995793;28;20428;-96
2023/12/02 14:33:22;;;;;;;;;;;;;;;;;;;;;
2023/12/02 14:36:08;;;;;;;7.70;2.50;;;;;;;16.40;52.18;98237.47;4979246;28;20049;-96
2023/12/02 14:39:07;;;;;;;8.23;2.40;;;;;;;16.21;52.39;98221.69;5011383;28;20047;-96
2023/12/02 14:42:13;;;;;;;4.78;2.38;;;;;;;16.43;52.43;98252.31;4984884;28;20042;-96
2023/12/02 14:44:41;;;;;;;4.45;2.10;;;;;;;16.30;52.52;98237.88;5163863;23;20305;-96
2023/12/02 14:50:43;;;;;;;4.05;2.08;;;;;;;16.26;52.97;98237.75;5089639;22;20046;-96
2023/12/02 14:53:10;;;;;;;5.43;2.13;;;;;;;16.28;52.91;98212.97;4991738;28;20468;-94
2023/12/02 14:55:56;;;;;;;7.93;2.20;;;;;;;16.28;53.08;98219.19;4937636;29;20040;-96
2023/12/02 14:58:27;;;;;;;8.93;2.85;;;;;;;16.28;53.31;98229.28;4934322;29;20452;-95
2023/12/02 15:04:47;;;;;;;8.15;2.30;;;;;;;16.11;53.60;98219.38;4915274;29;20059;-96
2023/12/02 15:07:24;;;;;;;9.02;2.22;;;;;;;16.14;53.72;98221.41;4984241;23;20024;-95
2023/12/02 15:10:03;;;;;;;7.20;2.90;;;;;;;16.22;53.82;98238.75;4954733;29;20051;-96
2023/12/02 15:12:35;;;;;;;6.20;2.17;;;;;;;16.17;53.58;98229.69;4939890;29;20058;-95
2023/12/02 15:15:04;;;;;;;4.75;1.83;;;;;;;16.11;53.36;98220.16;4954358;29;20120;-96
2023/12/02 15:17:36;;;;;;;6.28;2.33;;;;;;;16.11;53.30;98219.38;4939872;28;20035;-96
2023/12/02 15:20:12;;;;;;;5.30;1.88;;;;;;;16.17;53.47;98231.63;4957344;28;20023;-96
2023/12/02 15:25:23;;;;;;;;;;;;;;;16.22;53.45;98238.75;5470504;23;20088;-96
2023/12/02 15:27:58;;;;;;;7.53;2.40;;;;;;;16.12;53.37;98229.09;4996048;28;20017;-96
2023/12/02 15:30:51;;;;;;;;;;;;;;;;;;;;;
2023/12/02 15:33:47;;;;;;;;;;;;;;;;;;;;;
2023/12/02 15:36:18;;;;;;;7.68;2.85;;;;;;;16.06;53.64;98231.25;5016612;28;20053;-95
2023/12/02 16:10:43;;;;;;;6.22;2.47;;;;;;;15.96;54.41;98213.44;4999260;28;20062;-95
2023/12/02 16:14:05;;;;;;;6.18;1.98;;;;;;;15.91;54.29;98208.19;4938765;29;20031;-95
2023/12/02 16:16:37;;;;;;;7.82;2.60;;;;;;;15.95;54.64;98206.41;4865832;29;20082;-95
2023/12/02 16:19:07;;;;;;;;;;;;;;;16.20;54.34;98233.66;4885780;29;20037;-96
2023/12/02 16:21:33;;;;;;;5.45;1.75;;;;;;;16.00;53.89;98200.00;4884866;29;19943;-94
2023/12/02 16:23:59;;;;;;;6.07;1.92;;;;;;;16.05;54.32;98209.84;4895397;29;20103;-95
2023/12/02 16:26:25;;;;;;;7.20;2.20;;;;;;;16.10;54.33;98215.06;4924718;29;20039;-96
2023/12/02 16:28:51;;;;;;;6.78;2.28;;;;;;;16.15;54.52;98231.94;4907436;29;20032;-96
2023/12/02 16:31:24;;;;;;;6.22;1.92;;;;;;;16.23;54.27;98243.03;4919534;29;20043;-96
2023/12/02 16:33:50;;;;;;;6.28;2.40;;;;;;;16.17;54.43;98228.91;4918359;29;20064;-95
2023/12/02 16:36:16;;;;;;;8.55;2.28;;;;;;;16.14;54.11;98215.97;4921717;29;20056;-96
2023/12/02 16:38:42;;;;;;;3.88;2.25;;;;;;;16.17;54.65;98220.75;4902974;29;20040;-94
2023/12/02 16:41:08;;;;;;;6.22;2.83;;;;;;;16.12;54.61;98221.75;4903397;29;20557;-94
2023/12/02 16:43:33;;;;;;;6.05;3.28;;;;;;;16.13;54.63;98217.91;4921428;29;20124;-95
2023/12/02 16:46:00;;;;;;;6.93;2.90;;;;;;;16.22;54.54;98222.47;4906100;29;20039;-94
2023/12/02 16:48:30;;;;;;;6.00;2.60;;;;;;;16.19;54.71;98210.34;4945371;28;20042;-94
2023/12/02 16:50:55;;;;;;;5.90;2.90;;;;;;;16.02;54.95;98184.16;4985321;28;20353;-95
2023/12/02 16:53:23;;;;;;;12.65;2.78;;;;;;;16.13;54.94;98201.63;4967884;28;20026;-95
2023/12/02 16:55:57;;;;;;;4.82;2.40;;;;;;;16.03;54.49;98177.59;4967007;28;20053;-95
2023/12/02 16:58:26;;;;;;;5.45;2.55;;;;;;;16.14;54.41;98192.34;4985956;28;20026;-94
2023/12/02 17:00:58;;;;;;;7.78;2.95;;;;;;;16.06;54.47;98171.50;4966729;28;20100;-95
2023/12/02 17:03:37;;;;;;;5.40;2.50;;;;;;;16.12;54.62;98193.78;4969813;28;20109;-94
2023/12/02 17:06:28;;;;;;;8.20;2.80;;;;;;;16.05;54.54;98178.03;4986097;28;20073;-95
2023/12/02 17:08:56;;;;;;;5.20;2.53;;;;;;;15.92;54.72;98152.78;4988879;28;20463;-96
2023/12/02 17:11:25;;;;;;;5.40;2.58;;;;;;;15.92;54.75;98147.34;4969525;28;20065;-95
2023/12/02 17:14:05;;;;;;;7.45;2.60;;;;;;;15.87;54.47;98141.31;4969086;28;20038;-94
2023/12/02 17:16:31;;;;;;;5.40;2.35;;;;;;;15.99;53.70;98157.66;4985280;28;20404;-95
2023/12/02 17:18:58;;;;;;;4.20;1.83;;;;;;;16.02;53.51;98142.63;5003316;28;20062;-96
2023/12/02 17:30:43;;;;;;;12.35;5.82;;;;;;;16.00;53.26;98136.72;5225763;22;20306;-96
2023/12/02 17:33:11;;;;;;;19.98;5.70;;;;;;;15.83;52.74;98115.97;4985816;28;20125;-96
2023/12/02 17:35:37;;;;;;;12.07;5.07;;;;;;;15.85;52.60;98135.44;4986195;28;20031;-94
2023/12/02 17:38:06;;;;;;;13.88;4.95;;;;;;;15.93;52.16;98148.13;4967674;28;20053;-95
2023/12/02 17:40:33;;;;;;;11.02;4.60;;;;;;;16.08;51.39;98157.56;4986020;28;20038;-96
2023/12/02 17:43:00;;;;;;;5.53;3.08;;;;;;;16.13;51.01;98152.72;4999777;28;20099;-95
2023/12/02 17:45:28;;;;;;;8.57;3.40;;;;;;;16.09;51.05;98140.94;4967254;28;20049;-95
2023/12/02 17:47:57;;;;;;;9.85;3.22;;;;;;;16.15;51.02;98155.91;4984013;28;20022;-95
2023/12/02 17:50:44;;;;;;;10.23;4.60;;;;;;;16.15;51.01;98153.19;4948406;29;20054;-95
2023/12/02 17:53:11;;;;;;;7.72;3.90;;;;;;;16.14;50.62;98150.81;4915379;29;20055;-96
2023/12/02 17:55:39;;;;;;;8.80;3.78;;;;;;;16.19;50.63;98166.91;4929107;29;20604;-96
2023/12/02 17:58:05;;;;;;;9.25;3.85;;;;;;;16.14;50.96;98165.19;4928470;29;20070;-96
2023/12/02 18:00:31;;;;;;;7.50;4.05;;;;;;;15.99;51.05;98149.50;4927819;29;20039;-96
2023/12/02 18:03:08;;;;;;;10.65;3.95;;;;;;;16.08;51.15;98160.28;4914151;29;20114;-94
2023/12/02 18:05:37;;;;;;;9.18;5.07;;;;;;;15.90;51.52;98138.75;4943851;29;20035;-96
2023/12/02 18:08:26;;;;;;;11.68;6.15;;;;;;;15.92;51.53;98147.34;4945565;29;20289;-96
2023/12/02 18:10:53;;;;;;;12.13;5.55;;;;;;;15.85;51.67;98135.44;4903677;29;20048;-95
2023/12/02 18:13:22;;;;;;;8.18;4.68;;;;;;;15.82;51.93;98131.47;4903607;29;20079;-96
2023/12/02 18:15:48;;;;;;;13.18;3.92;;;;;;;15.76;51.36;98125.44;4874528;29;20033;-96
2023/12/02 18:18:22;;;;;;;15.13;4.90;;;;;;;15.81;51.50;98123.66;4889612;29;20479;-94
2023/12/02 18:20:53;;;;;;;10.95;4.30;;;;;;;15.80;51.17;98114.72;4898655;29;20063;-96
2023/12/02 18:23:26;;;;;;;12.10;4.43;;;;;;;15.67;51.51;98111.16;4947509;29;20034;-95
2023/12/02 18:25:52;;;;;;;10.63;5.38;;;;;;;15.62;51.34;98113.25;4944862;29;20047;-94
2023/12/02 18:28:18;;;;;;;16.00;7.35;;;;;;;15.67;51.33;98124.72;4928382;29;20034;-94
2023/12/02 18:30:45;;;;;;;16.35;7.32;;;;;;;15.67;50.52;98111.16;4944075;28;20162;-95
2023/12/02 18:33:15;;;;;;;10.55;5.72;;;;;;;15.70;50.91;98115.09;4945199;29;20050;-96
2023/12/02 18:35:42;;;;;;;12.93;6.13;;;;;;;15.63;51.04;98112.16;4960843;29;20042;-94
2023/12/02 18:38:12;;;;;;;14.60;6.57;;;;;;;15.73;50.64;98130.78;4930053;29;20024;-96
2023/12/02 18:40:39;;;;;;;11.90;6.05;;;;;;;15.62;50.98;98115.97;4945832;28;20031;-94
2023/12/02 18:43:05;;;;;;;8.95;4.88;;;;;;;15.64;50.02;98119.94;5000806;28;20026;-95
2023/12/02 18:45:31;;;;;;;9.30;5.80;;;;;;;15.65;49.97;98116.13;4967261;28;20483;-95
2023/12/02 18:48:00;;;;;;;10.48;4.05;;;;;;;15.67;50.56;98121.22;4967050;28;20022;-96
2023/12/02 18:50:25;;;;;;;9.50;4.25;;;;;;;15.75;50.34;98147.50;4968204;28;20026;-96
2023/12/02 18:52:53;;;;;;;11.27;5.32;;;;;;;15.61;50.12;98126.03;4966722;28;20034;-95
2023/12/02 18:55:20;;;;;;;10.05;5.50;;;;;;;15.64;50.08;98121.88;4998850;28;20042;-95
2023/12/02 18:57:46;;;;;;;13.20;5.45;;;;;;;15.64;49.66;98124.56;4981054;28;20401;-96
2023/12/02 19:00:18;;;;;;;15.75;3.83;;;;;;;15.55;49.42;98122.72;4966912;28;20118;-96
2023/12/02 19:02:46;;;;;;;12.32;4.25;;;;;;;15.59;49.26;98136.44;5006634;28;20026;-96
2023/12/02 19:05:15;;;;;;;7.85;3.58;;;;;;;15.54;48.89;98126.59;4988782;28;20065;-96
2023/12/02 19:07:44;;;;;;;9.45;4.68;;;;;;;15.61;48.62;98136.13;4990300;28;20022;-95
2023/12/02 19:10:14;;;;;;;9.55;3.83;;;;;;;15.48;48.87;98133.34;4973915;28;20168;-95
2023/12/02 19:12:40;;;;;;;20.65;10.75;;;;;;;15.53;48.24;98137.75;4989927;28;20042;-96
2023/12/02 19:15:06;;;;;;;7.18;3.60;;;;;;;15.62;48.71;98159.41;4970995;28;20031;-95
2023/12/02 19:17:32;;;;;;;7.10;2.60;;;;;;;15.56;47.87;98162.31;4970258;28;20062;-94
2023/12/02 19:19:58;;;;;;;9.05;2.90;;;;;;;15.62;47.99;98178.38;4971372;28;20030;-95